createdAt,value
2018-08-19T00:00:45.919Z,98812.73
2018-08-19T00:03:14.325Z,98823.22
2018-08-19T00:05:42.710Z,98820.86
2018-08-19T00:16:47.359Z,98816.34
2018-08-19T00:19:15.870Z,98810.73
2018-08-19T00:21:44.320Z,98809.16
2018-08-19T00:24:12.653Z,98809.09
2018-08-19T00:26:40.980Z,98812.83
2018-08-19T00:29:09.356Z,98801.12
2018-08-19T00:31:38.225Z,98805.42
2018-08-19T00:34:06.777Z,98803.65
2018-08-19T00:36:36.671Z,98803.47
2018-08-19T00:39:08.076Z,98802.59
2018-08-19T00:41:36.398Z,98808.48
2018-08-19T00:44:04.725Z,98809.92
2018-08-19T00:46:33.412Z,98807.36
2018-08-19T00:49:02.187Z,98806.10
2018-08-19T00:51:30.566Z,98803.86
2018-08-19T00:53:59.000Z,98803.13
2018-08-19T00:56:27.397Z,98806.51
2018-08-19T00:58:55.894Z,98810.74
2018-08-19T01:01:32.593Z,98812.33
2018-08-19T01:04:01.058Z,98814.19
2018-08-19T01:06:29.349Z,98815.92
2018-08-19T01:08:57.782Z,98809.72
2018-08-19T01:11:35.330Z,98814.16
2018-08-19T01:14:09.558Z,98819.71
2018-08-19T01:16:37.948Z,98811.99
2018-08-19T01:21:56.818Z,98821.94
2018-08-19T01:24:26.091Z,98822.27
2018-08-19T01:27:12.737Z,98822.06
2018-08-19T01:29:44.237Z,98811.59
2018-08-19T01:32:22.515Z,98822.20
2018-08-19T01:34:50.886Z,98829.65
2018-08-19T01:37:25.223Z,98830.30
2018-08-19T01:39:53.617Z,98823.44
2018-08-19T01:42:21.954Z,98817.27
2018-08-19T01:44:50.553Z,98813.85
2018-08-19T01:47:18.913Z,98815.45
2018-08-19T01:49:47.268Z,98814.38
2018-08-19T01:52:15.581Z,98820.91
2018-08-19T01:54:43.910Z,98825.97
2018-08-19T01:57:13.137Z,98821.94
2018-08-19T01:59:41.479Z,98826.52
2018-08-19T02:02:10.047Z,98818.01
2018-08-19T02:04:56.449Z,98821.12
2018-08-19T02:07:25.649Z,98822.25
2018-08-19T02:10:02.433Z,98820.91
2018-08-19T02:12:35.826Z,98821.13
2018-08-19T02:15:04.796Z,98817.80
2018-08-19T02:17:33.844Z,98818.38
2018-08-19T02:20:02.127Z,98815.84
2018-08-19T02:22:30.478Z,98822.25
2018-08-19T02:24:58.835Z,98822.31
2018-08-19T02:27:27.225Z,98814.98
2018-08-19T02:29:55.557Z,98819.71
2018-08-19T02:32:23.871Z,98817.45
2018-08-19T02:34:52.232Z,98817.88
2018-08-19T02:37:20.593Z,98815.03
2018-08-19T02:39:49.848Z,98809.03
2018-08-19T02:42:25.422Z,98815.18
2018-08-19T02:45:00.272Z,98814.04
2018-08-19T02:47:28.857Z,98806.23
2018-08-19T02:49:57.230Z,98816.16
2018-08-19T02:52:28.754Z,98807.34
2018-08-19T02:54:58.665Z,98809.38
2018-08-19T02:57:27.974Z,98808.27
2018-08-19T02:59:56.937Z,98812.86
2018-08-19T03:02:26.744Z,98810.99
2018-08-19T03:04:55.929Z,98801.27
2018-08-19T03:07:28.685Z,98800.58
2018-08-19T03:10:02.401Z,98791.88
2018-08-19T03:12:30.764Z,98804.10
2018-08-19T03:14:59.200Z,98804.05
2018-08-19T03:17:28.352Z,98803.86
2018-08-19T03:19:57.706Z,98786.98
2018-08-19T03:22:26.726Z,98790.00
2018-08-19T03:24:55.511Z,98785.50
2018-08-19T03:27:23.820Z,98789.34
2018-08-19T03:29:54.308Z,98794.23
2018-08-19T03:32:23.292Z,98791.73
2018-08-19T03:34:52.276Z,98796.67
2018-08-19T03:37:20.672Z,98801.58
2018-08-19T03:39:49.012Z,98799.45
2018-08-19T03:42:17.360Z,98807.99
2018-08-19T03:44:45.856Z,98805.88
2018-08-19T03:47:18.298Z,98805.39
2018-08-19T03:49:46.851Z,98803.11
2018-08-19T03:52:15.867Z,98806.16
2018-08-19T03:54:45.130Z,98805.31
2018-08-19T03:57:13.902Z,98805.27
2018-08-19T03:59:44.864Z,98805.83
2018-08-19T04:02:13.243Z,98806.73
2018-08-19T04:04:41.546Z,98809.74
2018-08-19T04:07:09.881Z,98805.20
2018-08-19T04:09:38.292Z,98805.20
2018-08-19T04:12:12.986Z,98810.85
2018-08-19T04:14:41.313Z,98812.30
2018-08-19T04:17:13.063Z,98809.52
2018-08-19T04:19:41.632Z,98815.44
2018-08-19T04:22:09.970Z,98820.41
2018-08-19T04:24:38.345Z,98819.39
2018-08-19T04:27:08.108Z,98819.22
2018-08-19T04:29:37.074Z,98813.23
2018-08-19T04:32:06.348Z,98825.14
2018-08-19T04:34:34.728Z,98821.52
2018-08-19T04:37:03.083Z,98823.00
2018-08-19T04:39:32.329Z,98822.61
2018-08-19T04:42:00.663Z,98826.55
2018-08-19T04:44:29.454Z,98824.20
2018-08-19T04:46:57.929Z,98824.73
2018-08-19T04:49:26.301Z,98828.38
2018-08-19T04:51:54.656Z,98821.86
2018-08-19T05:00:05.729Z,98829.97
2018-08-19T05:05:24.675Z,98835.55
2018-08-19T05:07:53.061Z,98825.25
2018-08-19T05:21:43.987Z,98841.23
2018-08-19T05:27:06.797Z,98842.30
2018-08-19T05:29:35.225Z,98839.17
2018-08-19T05:34:54.078Z,98845.01
2018-08-19T05:37:45.033Z,98842.02
2018-08-19T05:40:13.382Z,98841.36
2018-08-19T05:42:42.282Z,98838.98
2018-08-19T05:45:10.638Z,98842.42
2018-08-19T05:47:39.014Z,98844.70
2018-08-19T05:50:07.333Z,98849.59
2018-08-19T05:52:35.700Z,98850.98
2018-08-19T05:55:11.478Z,98841.70
2018-08-19T06:03:42.265Z,98851.36
2018-08-19T06:06:10.762Z,98853.61
2018-08-19T06:08:39.098Z,98853.77
2018-08-19T06:31:14.908Z,98857.72
2018-08-19T06:42:03.420Z,98861.27
2018-08-19T06:56:11.841Z,98870.91
2018-08-19T07:10:07.421Z,98868.66
2018-08-19T07:15:26.224Z,98868.27
2018-08-19T07:29:17.793Z,98874.91
2018-08-19T07:37:27.374Z,98867.64
2018-08-19T07:39:55.670Z,98872.12
2018-08-19T07:45:15.217Z,98868.73
2018-08-19T07:53:19.267Z,98869.05
2018-08-19T08:01:30.053Z,98870.25
2018-08-19T08:06:48.885Z,98869.44
2018-08-19T08:09:17.900Z,98867.13
2018-08-19T08:11:46.283Z,98873.60
2018-08-19T08:14:14.625Z,98875.26
2018-08-19T08:16:48.278Z,98873.34
2018-08-19T08:19:16.672Z,98871.30
2018-08-19T08:21:45.995Z,98876.91
2018-08-19T08:24:14.401Z,98876.11
2018-08-19T08:26:49.250Z,98877.34
2018-08-19T08:29:38.240Z,98876.66
2018-08-19T08:32:06.606Z,98877.66
2018-08-19T08:37:26.570Z,98876.64
2018-08-19T08:48:27.506Z,98868.40
2018-08-19T08:50:56.117Z,98872.75
2018-08-19T08:53:28.525Z,98874.98
2018-08-19T08:55:56.945Z,98864.66
2018-08-19T08:58:25.785Z,98863.20
2018-08-19T09:00:54.160Z,98860.92
2018-08-19T09:03:22.517Z,98858.66
2018-08-19T09:08:43.017Z,98856.36
2018-08-19T09:11:11.547Z,98848.41
2018-08-19T09:13:39.918Z,98845.43
2018-08-19T09:16:08.293Z,98849.81
2018-08-19T09:18:36.618Z,98848.48
2018-08-19T09:21:05.111Z,98850.58
2018-08-19T09:23:33.708Z,98851.06
2018-08-19T09:28:52.471Z,98843.11
2018-08-19T09:34:45.144Z,98830.79
2018-08-19T09:37:13.505Z,98831.66
2018-08-19T09:39:41.821Z,98828.11
2018-08-19T09:42:12.964Z,98831.68
2018-08-19T09:44:43.228Z,98833.65
2018-08-19T09:50:02.616Z,98829.66
2018-08-19T10:01:10.312Z,98821.48
2018-08-19T10:03:52.866Z,98815.98
2018-08-19T10:06:21.241Z,98823.27
2018-08-19T10:08:49.566Z,98825.34
2018-08-19T10:11:18.071Z,98823.02
2018-08-19T10:13:48.874Z,98821.23
2018-08-19T10:16:17.568Z,98815.19
2018-08-19T10:18:45.984Z,98813.16
2018-08-19T10:21:18.313Z,98812.55
2018-08-19T10:23:46.780Z,98810.02
2018-08-19T10:26:15.898Z,98809.06
2018-08-19T10:34:26.970Z,98806.96
2018-08-19T10:36:55.788Z,98799.75
2018-08-19T10:39:24.128Z,98799.75
2018-08-19T10:44:43.514Z,98791.78
2018-08-19T10:47:11.817Z,98789.15
2018-08-19T10:49:40.160Z,98785.36
2018-08-19T10:52:13.095Z,98786.91
2018-08-19T10:54:41.415Z,98782.48
2018-08-19T10:57:17.433Z,98777.89
2018-08-19T10:59:45.992Z,98774.53
2018-08-19T11:02:14.367Z,98781.80
2018-08-19T11:04:43.470Z,98782.64
2018-08-19T11:07:11.897Z,98777.31
2018-08-19T11:09:51.508Z,98771.80
2018-08-19T11:12:19.872Z,98772.43
2018-08-19T11:14:48.247Z,98771.66
2018-08-19T11:17:16.767Z,98763.22
2018-08-19T11:19:46.717Z,98764.09
2018-08-19T11:22:15.064Z,98763.97
2018-08-19T11:24:43.563Z,98757.66
2018-08-19T11:27:12.018Z,98761.23
2018-08-19T11:29:41.619Z,98753.21
2018-08-19T11:32:11.129Z,98752.64
2018-08-19T11:34:39.582Z,98753.80
2018-08-19T11:37:07.984Z,98756.51
2018-08-19T11:39:41.589Z,98750.20
2018-08-19T11:42:09.955Z,98741.05
2018-08-19T11:44:38.365Z,98737.86
2018-08-19T11:47:06.816Z,98743.02
2018-08-19T11:49:35.148Z,98744.45
2018-08-19T11:52:04.704Z,98736.88
2018-08-19T11:54:33.892Z,98738.25
2018-08-19T11:57:06.667Z,98736.25
2018-08-19T12:05:18.515Z,98733.29
2018-08-19T12:07:51.985Z,98724.78
2018-08-19T12:10:20.917Z,98720.56
2018-08-19T12:12:50.665Z,98719.19
2018-08-19T12:21:00.157Z,98705.41
2018-08-19T12:26:23.934Z,98702.32
2018-08-19T12:28:52.286Z,98696.83
2018-08-19T12:42:49.054Z,98689.09
2018-08-19T12:45:17.372Z,98690.98
2018-08-19T12:47:45.760Z,98687.84
2018-08-19T12:58:46.073Z,98670.24
2018-08-19T13:01:14.374Z,98672.58
2018-08-19T13:03:42.718Z,98671.66
2018-08-19T13:09:02.679Z,98659.37
2018-08-19T13:17:15.561Z,98658.17
2018-08-19T13:19:48.081Z,98654.54
2018-08-19T13:22:17.606Z,98656.91
2018-08-19T13:39:00.185Z,98642.69
2018-08-19T13:41:28.558Z,98632.77
2018-08-19T13:43:57.177Z,98628.93
2018-08-19T13:46:25.541Z,98629.17
2018-08-19T13:48:53.936Z,98625.24
2018-08-19T13:51:22.253Z,98626.55
2018-08-19T13:53:50.563Z,98617.55
2018-08-19T13:56:19.109Z,98621.37
2018-08-19T13:58:47.506Z,98621.05
2018-08-19T14:01:28.302Z,98619.02
2018-08-19T14:03:56.675Z,98608.24
2018-08-19T14:06:25.020Z,98604.95
2018-08-19T14:08:53.377Z,98606.75
2018-08-19T14:11:21.679Z,98598.80
2018-08-19T14:13:51.217Z,98599.42
2018-08-19T14:16:19.577Z,98600.55
2018-08-19T14:18:47.993Z,98594.97
2018-08-19T14:21:16.439Z,98600.22
2018-08-19T14:23:44.755Z,98586.41
2018-08-19T14:26:13.083Z,98587.81
2018-08-19T14:28:41.416Z,98589.50
2018-08-19T14:31:09.745Z,98586.41
2018-08-19T14:33:38.031Z,98582.50
2018-08-19T14:36:06.567Z,98586.41
2018-08-19T14:38:34.848Z,98575.53
2018-08-19T14:41:03.194Z,98575.75
2018-08-19T14:43:31.629Z,98574.85
2018-08-19T14:46:00.002Z,98576.66
2018-08-19T14:48:28.340Z,98579.09
2018-08-19T14:50:56.695Z,98564.06
2018-08-19T14:53:25.108Z,98570.83
2018-08-19T14:56:04.635Z,98566.20
2018-08-19T14:58:32.982Z,98563.17
2018-08-19T15:01:01.275Z,98562.42
2018-08-19T15:03:29.645Z,98559.79
2018-08-19T15:06:03.170Z,98555.33
2018-08-19T15:08:32.617Z,98552.85
2018-08-19T15:11:04.928Z,98550.96
2018-08-19T15:13:33.628Z,98547.13
2018-08-19T15:16:01.930Z,98553.80
2018-08-19T15:18:30.207Z,98551.64
2018-08-19T15:23:50.468Z,98546.47
2018-08-19T15:37:53.382Z,98532.91
2018-08-19T15:40:33.484Z,98527.39
2018-08-19T15:45:53.612Z,98520.14
2018-08-19T15:48:22.113Z,98524.09
2018-08-19T15:51:07.097Z,98518.17
2018-08-19T15:56:27.850Z,98518.59
2018-08-19T15:58:56.222Z,98513.61
2018-08-19T16:04:50.118Z,98513.08
2018-08-19T16:10:08.627Z,98508.04
2018-08-19T16:15:28.901Z,98505.10
2018-08-19T16:17:58.198Z,98509.47
2018-08-19T16:20:26.556Z,98504.99
2018-08-19T16:22:59.717Z,98507.59
2018-08-19T16:28:19.042Z,98501.66
2018-08-19T16:30:47.380Z,98501.33
2018-08-19T16:33:15.707Z,98504.03
2018-08-19T16:38:34.960Z,98494.55
2018-08-19T16:41:03.319Z,98501.20
2018-08-19T16:43:31.672Z,98491.41
2018-08-19T16:57:23.376Z,98493.41
2018-08-19T17:02:46.463Z,98497.51
2018-08-19T17:05:30.504Z,98493.00
2018-08-19T17:16:59.800Z,98489.11
2018-08-19T17:22:18.744Z,98495.12
2018-08-19T17:24:47.036Z,98497.58
2018-08-19T17:27:15.357Z,98495.36
2018-08-19T17:29:43.781Z,98490.70
2018-08-19T17:32:12.292Z,98501.66
2018-08-19T17:34:41.551Z,98499.12
2018-08-19T17:37:10.271Z,98495.04
2018-08-19T17:39:38.733Z,98496.86
2018-08-19T17:42:07.037Z,98499.44
2018-08-19T17:44:35.436Z,98501.30
2018-08-19T17:47:03.733Z,98497.42
2018-08-19T17:49:32.360Z,98504.23
2018-08-19T17:52:01.392Z,98506.02
2018-08-19T17:54:30.942Z,98502.62
2018-08-19T17:57:00.544Z,98516.13
2018-08-19T17:59:29.030Z,98515.61
2018-08-19T18:01:57.856Z,98512.36
2018-08-19T18:04:48.957Z,98515.98
2018-08-19T18:07:23.721Z,98514.09
2018-08-19T18:09:56.570Z,98515.17
2018-08-19T18:12:25.138Z,98520.96
2018-08-19T18:14:53.550Z,98526.55
2018-08-19T18:17:21.838Z,98521.42
2018-08-19T18:19:50.162Z,98530.66
2018-08-19T18:22:21.037Z,98526.02
2018-08-19T18:24:53.197Z,98520.95
2018-08-19T18:27:21.515Z,98527.16
2018-08-19T18:29:49.865Z,98525.41
2018-08-19T18:32:18.245Z,98529.14
2018-08-19T18:34:46.618Z,98526.20
2018-08-19T18:37:14.979Z,98530.39
2018-08-19T18:39:43.848Z,98532.50
2018-08-19T18:42:14.708Z,98530.33
2018-08-19T18:44:49.783Z,98536.80
2018-08-19T18:47:18.139Z,98537.20
2018-08-19T18:49:46.569Z,98533.28
2018-08-19T18:52:17.886Z,98536.80
2018-08-19T18:54:46.187Z,98540.92
2018-08-19T18:57:14.561Z,98546.55
2018-08-19T18:59:43.848Z,98545.56
2018-08-19T19:02:12.274Z,98549.17
2018-08-19T19:04:41.209Z,98550.22
2018-08-19T19:07:09.865Z,98551.45
2018-08-19T19:09:48.486Z,98550.44
2018-08-19T19:12:21.231Z,98557.47
2018-08-19T19:14:49.537Z,98554.50
2018-08-19T19:17:19.747Z,98553.80
2018-08-19T19:19:49.554Z,98552.96
2018-08-19T19:22:18.291Z,98555.67
2018-08-19T19:24:46.637Z,98559.50
2018-08-19T19:27:15.083Z,98570.78
2018-08-19T19:29:44.916Z,98563.72
2018-08-19T19:40:45.234Z,98575.39
2018-08-19T19:46:04.637Z,98571.09
2018-08-19T19:48:33.008Z,98585.56
2018-08-19T19:51:01.662Z,98573.20
2018-08-19T19:53:30.087Z,98580.81
2018-08-19T19:56:02.565Z,98583.46
2018-08-19T19:58:30.875Z,98582.11
2018-08-19T20:00:59.264Z,98582.05
2018-08-19T20:03:31.204Z,98586.41
2018-08-19T20:06:06.834Z,98584.94
2018-08-19T20:08:35.198Z,98585.20
2018-08-19T20:11:03.584Z,98581.16
2018-08-19T20:13:31.975Z,98585.69
2018-08-19T20:16:00.308Z,98587.95
2018-08-19T20:18:29.331Z,98586.41
2018-08-19T20:20:57.666Z,98583.16
2018-08-19T20:26:17.231Z,98577.61
2018-08-19T20:28:45.568Z,98583.44
2018-08-19T20:31:13.961Z,98576.31
2018-08-19T20:33:43.010Z,98584.32
2018-08-19T20:36:11.433Z,98578.34
2018-08-19T20:47:11.628Z,98579.94
2018-08-19T20:49:40.237Z,98588.47
2018-08-19T20:52:22.309Z,98587.75
2018-08-19T20:57:41.160Z,98591.40
2018-08-19T21:00:10.047Z,98589.91
2018-08-19T21:02:39.324Z,98593.47
2018-08-19T21:05:07.853Z,98594.98
2018-08-19T21:07:36.317Z,98594.37
2018-08-19T21:10:05.106Z,98589.52
2018-08-19T21:12:33.404Z,98588.09
2018-08-19T21:15:01.789Z,98592.04
2018-08-19T21:17:32.218Z,98588.05
2018-08-19T21:20:00.585Z,98596.52
2018-08-19T21:22:29.075Z,98593.38
2018-08-19T21:24:57.392Z,98600.97
2018-08-19T21:27:26.027Z,98599.80
2018-08-19T21:29:54.541Z,98600.13
2018-08-19T21:32:23.441Z,98602.69
2018-08-19T21:34:51.855Z,98595.43
2018-08-19T21:37:27.335Z,98602.66
2018-08-19T21:39:55.727Z,98598.81
2018-08-19T21:42:24.872Z,98606.75
2018-08-19T21:44:53.676Z,98603.03
2018-08-19T21:47:21.996Z,98604.03
2018-08-19T21:49:54.481Z,98606.57
2018-08-19T21:52:22.865Z,98603.52
2018-08-19T21:54:51.213Z,98602.66
2018-08-19T21:57:19.559Z,98597.62
2018-08-19T21:59:47.945Z,98605.23
2018-08-19T22:05:07.919Z,98607.77
2018-08-19T22:07:36.278Z,98605.85
2018-08-19T22:10:05.806Z,98605.89
2018-08-19T22:12:35.620Z,98603.17
2018-08-19T22:15:04.430Z,98602.98
2018-08-19T22:17:32.784Z,98606.90
2018-08-19T22:20:01.270Z,98615.77
2018-08-19T22:22:29.653Z,98615.95
2018-08-19T22:25:00.382Z,98619.17
2018-08-19T22:27:28.760Z,98620.31
2018-08-19T22:29:57.085Z,98613.48
2018-08-19T22:32:25.443Z,98616.13
2018-08-19T22:34:53.873Z,98619.34
2018-08-19T22:37:22.440Z,98626.16
2018-08-19T22:39:50.873Z,98622.61
2018-08-19T22:42:19.406Z,98624.18
2018-08-19T22:44:47.723Z,98618.86
2018-08-19T22:47:16.090Z,98616.95
2018-08-19T22:49:44.457Z,98622.08
2018-08-19T22:52:18.500Z,98619.34
2018-08-19T22:54:47.204Z,98613.09
2018-08-19T22:57:15.691Z,98624.05
2018-08-19T22:59:44.081Z,98616.80
2018-08-19T23:02:14.710Z,98616.97
2018-08-19T23:04:43.673Z,98624.63
2018-08-19T23:07:12.007Z,98627.87
2018-08-19T23:09:40.361Z,98624.33
2018-08-19T23:12:08.813Z,98629.35
2018-08-19T23:14:48.496Z,98622.61
2018-08-19T23:17:16.858Z,98620.23
2018-08-19T23:19:45.395Z,98619.67
2018-08-19T23:22:13.762Z,98625.00
2018-08-19T23:24:42.342Z,98619.72
2018-08-19T23:27:10.721Z,98624.01
2018-08-19T23:29:39.131Z,98624.97
2018-08-19T23:32:07.519Z,98618.60
2018-08-19T23:34:35.861Z,98622.14
2018-08-19T23:37:04.217Z,98623.42
2018-08-19T23:39:32.664Z,98620.54
2018-08-19T23:42:00.981Z,98617.42
2018-08-19T23:44:29.325Z,98624.05
2018-08-19T23:46:57.645Z,98618.09
2018-08-19T23:49:26.012Z,98622.91
2018-08-19T23:51:54.407Z,98615.31
2018-08-19T23:54:22.769Z,98611.89
2018-08-19T23:56:51.065Z,98620.85
2018-08-19T23:59:26.577Z,98619.02
